Masuei Maru No41 — JD2285 — position and weather

sailwx.info

Track history (hours):
 
Tides and Currents Weather Stations Pressure Air Temp Water Temp Dewpoint Dewpoint Depression Visibility Wind Speed Wind Dir Waves Ship Positions

Masuei Maru No41

Last reported at 2018-Jan-18 07:22 UTC. Time now 2018-Jan-18 16:14 UTC.
Position N 34°13' E 135°09'.

Length 32 m.

Type: Tug. MMSI: 431301814.

Date/timePositionNaut miles runAvg speedWind from/ knotsBaromVisibWave heightAir tempDewpointWater temp
2018-Jan-18 07:22N 34°13' E 135°09'3 7.7
2018-Jan-18 07:00N 34°11' E 135°08'3 2.3
2018-Jan-18 05:37N 34°08' E 135°07'1 5.7
2018-Jan-18 05:25N 34°08' E 135°06'4 6.0
2018-Jan-18 04:47N 34°12' E 135°08'2 5.3
2018-Jan-18 04:28N 34°13' E 135°09'0 0.0
2018-Jan-18 03:59N 34°13' E 135°09'0 0.0
2018-Jan-18 03:29N 34°13' E 135°09'0 0.0
2018-Jan-18 02:59N 34°13' E 135°09'0 0.0
2018-Jan-18 02:29N 34°13' E 135°09'0 0.0
2018-Jan-18 01:58N 34°13' E 135°09'0 0.0
2018-Jan-18 01:29N 34°13' E 135°09'0 0.0
2018-Jan-18 00:58N 34°13' E 135°09'0 0.0
2018-Jan-17 23:59N 34°13' E 135°09'0 0.1
2018-Jan-17 23:56N 34°13' E 135°09'  
2018-Jan-12 11:16N 34°13' E 135°09'1 2.5
2018-Jan-12 10:55N 34°12' E 135°09'1 1.5
2018-Jan-12 10:30N 34°13' E 135°08'1 0.1
2018-Jan-12 06:56N 34°13' E 135°09'1 1.9
2018-Jan-12 06:28N 34°12' E 135°09'1 2.8
2018-Jan-12 06:00N 34°13' E 135°07'1 2.9
2018-Jan-12 05:30N 34°13' E 135°09'0 0.0
2018-Jan-12 04:57N 34°13' E 135°09'0 0.0
2018-Jan-12 04:30N 34°13' E 135°09'0 0.0
2018-Jan-12 04:00N 34°13' E 135°09'0 0.9
2018-Jan-12 03:30N 34°13' E 135°09'0 0.8
2018-Jan-12 02:59N 34°13' E 135°09'0 0.0
2018-Jan-12 02:29N 34°13' E 135°09'0 0.0
2018-Jan-12 01:59N 34°13' E 135°09'0 0.0
2018-Jan-12 01:26N 34°13' E 135°09'0 0.0
2018-Jan-12 00:56N 34°13' E 135°09'0 0.0
2018-Jan-12 00:29N 34°13' E 135°09'0 0.0
2018-Jan-11 23:56N 34°13' E 135°09'0 0.0
2018-Jan-11 23:26N 34°13' E 135°09'0 0.0
2018-Jan-11 22:59N 34°13' E 135°09'0 0.8
2018-Jan-11 22:31N 34°13' E 135°09'0 0.8
2018-Jan-11 22:00N 34°13' E 135°08'1 1.5
2018-Jan-11 21:27N 34°13' E 135°09'0 0.0
2018-Jan-11 21:00N 34°13' E 135°09'0 0.0
2018-Jan-11 08:55N 34°13' E 135°09'4 8.2
2018-Jan-11 08:27N 34°10' E 135°07'3 4.4
2018-Jan-11 07:51N 34°07' E 135°08'1 0.5
2018-Jan-11 06:26N 34°07' E 135°09'1 1.9
2018-Jan-11 05:45N 34°07' E 135°07'2 0.3
2018-Jan-10 23:55N 34°09' E 135°09'2 3.8
2018-Jan-10 23:18N 34°09' E 135°11'1 3.3
2018-Jan-10 22:58N 34°09' E 135°10'3 5.0
2018-Jan-10 22:19N 34°11' E 135°08'2 6.6
2018-Jan-10 21:58N 34°13' E 135°09'0 0.0
2018-Jan-10 21:28N 34°13' E 135°09'0 0.0
2018-Jan-10 12:04N 34°13' E 135°09'0 5.7
2018-Jan-10 12:01N 34°13' E 135°09'1 0.9
2018-Jan-10 10:39N 34°14' E 135°08'0 1.2
2018-Jan-10 10:29N 34°14' E 135°07'2 3.9
2018-Jan-10 09:52N 34°14' E 135°04'2 4.9
2018-Jan-10 09:29N 34°13' E 135°06'0 0.5
2018-Jan-10 09:00N 34°12' E 135°06'1 1.2
2018-Jan-10 08:30N 34°12' E 135°06'5 0.6
2018-Jan-10 00:28N 34°07' E 135°07'0 0.0
2018-Jan-09 23:58N 34°07' E 135°07'0 0.4
2018-Jan-09 23:30N 34°07' E 135°06'1 1.2
2018-Jan-09 22:59N 34°08' E 135°06'1 1.2
2018-Jan-09 22:15N 34°08' E 135°06'411.8
2018-Jan-09 21:55N 34°12' E 135°08'2 3.5
2018-Jan-09 21:29N 34°13' E 135°09'0 0.0
2018-Jan-09 03:43N 34°13' E 135°09'2 2.7
2018-Jan-09 03:08N 34°13' E 135°07'1 6.5
2018-Jan-09 02:58N 34°13' E 135°08'1 1.3
2018-Jan-09 02:30N 34°13' E 135°09'0 0.0
2018-Jan-09 01:57N 34°13' E 135°09'0 0.0
2018-Jan-09 01:30N 34°13' E 135°09'0 0.0
2018-Jan-09 01:00N 34°13' E 135°09'0 0.0
2018-Jan-09 00:30N 34°13' E 135°09'1 1.9
2018-Jan-09 00:00N 34°13' E 135°08'5 6.5
2018-Jan-08 23:16N 34°08' E 135°06'0 0.2
2018-Jan-08 22:58N 34°08' E 135°06'5 9.2
2018-Jan-08 22:29N 34°13' E 135°08'1 2.1
2018-Jan-08 21:58N 34°13' E 135°09'0 0.0
2018-Jan-08 21:28N 34°13' E 135°09'1 0.1
2018-Jan-08 08:10N 34°13' E 135°07'211.7
2018-Jan-08 07:59N 34°13' E 135°05'611.6
2018-Jan-08 07:30N 34°12' E 134°58'  
Track history (hours):
 
Tides and Currents Weather Stations Pressure Air Temp Water Temp Dewpoint Dewpoint Depression Visibility Wind Speed Wind Dir Waves Ship Positions

Masuei Maru No41

Last reported at 2018-Jan-18 07:22 UTC. Time now 2018-Jan-18 16:14 UTC.
Position N 34°13' E 135°09'.

Length 32 m.

Type: Tug. MMSI: 431301814.

Date/timePositionNaut miles runAvg speedWind from/ knotsBaromVisibWave heightAir tempDewpointWater temp
2018-Jan-18 07:22N 34°13' E 135°09'3 7.7
2018-Jan-18 07:00N 34°11' E 135°08'3 2.3
2018-Jan-18 05:37N 34°08' E 135°07'1 5.7
2018-Jan-18 05:25N 34°08' E 135°06'4 6.0
2018-Jan-18 04:47N 34°12' E 135°08'2 5.3
2018-Jan-18 04:28N 34°13' E 135°09'0 0.0
2018-Jan-18 03:59N 34°13' E 135°09'0 0.0
2018-Jan-18 03:29N 34°13' E 135°09'0 0.0
2018-Jan-18 02:59N 34°13' E 135°09'0 0.0
2018-Jan-18 02:29N 34°13' E 135°09'0 0.0
2018-Jan-18 01:58N 34°13' E 135°09'0 0.0
2018-Jan-18 01:29N 34°13' E 135°09'0 0.0
2018-Jan-18 00:58N 34°13' E 135°09'0 0.0
2018-Jan-17 23:59N 34°13' E 135°09'0 0.1
2018-Jan-17 23:56N 34°13' E 135°09'  
2018-Jan-12 11:16N 34°13' E 135°09'1 2.5
2018-Jan-12 10:55N 34°12' E 135°09'1 1.5
2018-Jan-12 10:30N 34°13' E 135°08'1 0.1
2018-Jan-12 06:56N 34°13' E 135°09'1 1.9
2018-Jan-12 06:28N 34°12' E 135°09'1 2.8
2018-Jan-12 06:00N 34°13' E 135°07'1 2.9
2018-Jan-12 05:30N 34°13' E 135°09'0 0.0
2018-Jan-12 04:57N 34°13' E 135°09'0 0.0
2018-Jan-12 04:30N 34°13' E 135°09'0 0.0
2018-Jan-12 04:00N 34°13' E 135°09'0 0.9
2018-Jan-12 03:30N 34°13' E 135°09'0 0.8
2018-Jan-12 02:59N 34°13' E 135°09'0 0.0
2018-Jan-12 02:29N 34°13' E 135°09'0 0.0
2018-Jan-12 01:59N 34°13' E 135°09'0 0.0
2018-Jan-12 01:26N 34°13' E 135°09'0 0.0
2018-Jan-12 00:56N 34°13' E 135°09'0 0.0
2018-Jan-12 00:29N 34°13' E 135°09'0 0.0
2018-Jan-11 23:56N 34°13' E 135°09'0 0.0
2018-Jan-11 23:26N 34°13' E 135°09'0 0.0
2018-Jan-11 22:59N 34°13' E 135°09'0 0.8
2018-Jan-11 22:31N 34°13' E 135°09'0 0.8
2018-Jan-11 22:00N 34°13' E 135°08'1 1.5
2018-Jan-11 21:27N 34°13' E 135°09'0 0.0
2018-Jan-11 21:00N 34°13' E 135°09'0 0.0
2018-Jan-11 08:55N 34°13' E 135°09'4 8.2
2018-Jan-11 08:27N 34°10' E 135°07'3 4.4
2018-Jan-11 07:51N 34°07' E 135°08'1 0.5
2018-Jan-11 06:26N 34°07' E 135°09'1 1.9
2018-Jan-11 05:45N 34°07' E 135°07'2 0.3
2018-Jan-10 23:55N 34°09' E 135°09'2 3.8
2018-Jan-10 23:18N 34°09' E 135°11'1 3.3
2018-Jan-10 22:58N 34°09' E 135°10'3 5.0
2018-Jan-10 22:19N 34°11' E 135°08'2 6.6
2018-Jan-10 21:58N 34°13' E 135°09'0 0.0
2018-Jan-10 21:28N 34°13' E 135°09'0 0.0
2018-Jan-10 12:04N 34°13' E 135°09'0 5.7
2018-Jan-10 12:01N 34°13' E 135°09'1 0.9
2018-Jan-10 10:39N 34°14' E 135°08'0 1.2
2018-Jan-10 10:29N 34°14' E 135°07'2 3.9
2018-Jan-10 09:52N 34°14' E 135°04'2 4.9
2018-Jan-10 09:29N 34°13' E 135°06'0 0.5
2018-Jan-10 09:00N 34°12' E 135°06'1 1.2
2018-Jan-10 08:30N 34°12' E 135°06'5 0.6
2018-Jan-10 00:28N 34°07' E 135°07'0 0.0
2018-Jan-09 23:58N 34°07' E 135°07'0 0.4
2018-Jan-09 23:30N 34°07' E 135°06'1 1.2
2018-Jan-09 22:59N 34°08' E 135°06'1 1.2
2018-Jan-09 22:15N 34°08' E 135°06'411.8
2018-Jan-09 21:55N 34°12' E 135°08'2 3.5
2018-Jan-09 21:29N 34°13' E 135°09'0 0.0
2018-Jan-09 03:43N 34°13' E 135°09'2 2.7
2018-Jan-09 03:08N 34°13' E 135°07'1 6.5
2018-Jan-09 02:58N 34°13' E 135°08'1 1.3
2018-Jan-09 02:30N 34°13' E 135°09'0 0.0
2018-Jan-09 01:57N 34°13' E 135°09'0 0.0
2018-Jan-09 01:30N 34°13' E 135°09'0 0.0
2018-Jan-09 01:00N 34°13' E 135°09'0 0.0
2018-Jan-09 00:30N 34°13' E 135°09'1 1.9
2018-Jan-09 00:00N 34°13' E 135°08'5 6.5
2018-Jan-08 23:16N 34°08' E 135°06'0 0.2
2018-Jan-08 22:58N 34°08' E 135°06'5 9.2
2018-Jan-08 22:29N 34°13' E 135°08'1 2.1
2018-Jan-08 21:58N 34°13' E 135°09'0 0.0
2018-Jan-08 21:28N 34°13' E 135°09'1 0.1
2018-Jan-08 08:10N 34°13' E 135°07'211.7
2018-Jan-08 07:59N 34°13' E 135°05'611.6
2018-Jan-08 07:30N 34°12' E 134°58'  

Dump ship's entire track history